Oski — WYD3004 — position and weather

sailwx.info

Track history (hours):
 
Tides and Currents Weather Stations Pressure Air Temp Water Temp Dewpoint Dewpoint Depression Visibility Wind Speed Wind Dir Waves Ship Positions

Oski

Owner: BLUE & GOLD FLEET, SAN FRANCISCO, CA. More information available from US FCC via Universal Licensing System and Coast Guard Vessel Documentation Center.

Last reported at 2018-Jun-24 02:46 UTC. Time now 2018-Jun-24 20:15 UTC.
Position N 37°49' W 122°25'.

Length 24 m; draft 2 m.

Type: Passenger vessel. MMSI: 366985320.

Date/timePositionNaut miles runAvg speedWind from/ knotsBaromVisibWave heightAir tempDewpointWater temp
2018-Jun-24 02:46N 37°49' W 122°25'0 0.1
2018-Jun-24 02:30N 37°49' W 122°25'3 5.6
2018-Jun-24 02:00N 37°49' W 122°28'3 5.3
2018-Jun-24 01:30N 37°49' W 122°25'0 0.0
2018-Jun-24 00:55N 37°49' W 122°25'0 0.0
2018-Jun-24 00:27N 37°49' W 122°25'1 2.2
2018-Jun-24 00:00N 37°48' W 122°23'2 4.0
2018-Jun-23 23:30N 37°50' W 122°25'1 2.4
2018-Jun-23 23:00N 37°49' W 122°26'1 2.6
2018-Jun-23 22:28N 37°49' W 122°25'2 4.7
2018-Jun-23 22:00N 37°50' W 122°27'2 3.4
2018-Jun-23 21:23N 37°49' W 122°25'0 0.0
2018-Jun-23 20:55N 37°49' W 122°25'0 0.0
2018-Jun-23 20:28N 37°49' W 122°25'2 4.7
2018-Jun-23 20:01N 37°50' W 122°27'2 3.6
2018-Jun-23 19:24N 37°49' W 122°25'0 0.0
2018-Jun-23 19:00N 37°49' W 122°25'0 0.0
2018-Jun-23 04:24N 37°49' W 122°25'3 6.8
2018-Jun-23 04:00N 37°48' W 122°21'4 5.8
2018-Jun-23 03:23N 37°48' W 122°17'2 5.0
2018-Jun-23 03:00N 37°48' W 122°19'1 2.5
2018-Jun-23 02:30N 37°49' W 122°20'3 5.5
2018-Jun-23 02:00N 37°48' W 122°17'0 0.5
2018-Jun-23 01:28N 37°48' W 122°17'1 3.1
2018-Jun-23 01:00N 37°48' W 122°19'5 9.3
2018-Jun-23 00:29N 37°49' W 122°25'0 0.1
2018-Jun-22 23:59N 37°49' W 122°25'0 0.0
2018-Jun-21 15:43N 37°49' W 122°25'0 0.0
2018-Jun-21 15:28N 37°49' W 122°25'0 0.0
2018-Jun-21 02:38N 37°49' W 122°25'0 0.2
2018-Jun-21 02:30N 37°49' W 122°25'2 4.7
2018-Jun-21 02:00N 37°50' W 122°27'2 4.7
2018-Jun-21 01:30N 37°49' W 122°25'0 0.0
2018-Jun-21 01:01N 37°49' W 122°25'0 0.0
2018-Jun-21 00:30N 37°49' W 122°25'1 1.2
2018-Jun-21 00:00N 37°49' W 122°24'2 3.2
2018-Jun-20 23:31N 37°50' W 122°25'1 2.3
2018-Jun-20 23:01N 37°49' W 122°26'1 2.7
2018-Jun-20 22:29N 37°49' W 122°25'3 5.5
2018-Jun-20 22:00N 37°49' W 122°28'3 5.1
2018-Jun-20 21:29N 37°49' W 122°25'0 0.0
2018-Jun-20 20:54N 37°49' W 122°25'0 0.0
2018-Jun-20 20:31N 37°49' W 122°25'2 4.1
2018-Jun-20 20:00N 37°50' W 122°27'2 3.8
2018-Jun-20 19:28N 37°49' W 122°25'0 0.0
2018-Jun-20 18:58N 37°49' W 122°25'0 0.0
2018-Jun-20 02:50N 37°49' W 122°25'0 0.1
2018-Jun-20 02:30N 37°49' W 122°25'2 4.3
2018-Jun-20 02:01N 37°49' W 122°27'2 4.2
2018-Jun-20 01:31N 37°49' W 122°25'0 0.0
2018-Jun-20 01:00N 37°49' W 122°25'0 0.0
2018-Jun-20 00:30N 37°49' W 122°25'1 1.5
2018-Jun-20 00:00N 37°48' W 122°24'2 3.4
2018-Jun-19 23:30N 37°50' W 122°25'1 2.8
2018-Jun-19 23:00N 37°49' W 122°27'2 3.4
2018-Jun-19 22:30N 37°49' W 122°25'3 5.8
2018-Jun-19 22:00N 37°49' W 122°28'3 5.7
2018-Jun-19 21:30N 37°49' W 122°25'0 0.0
2018-Jun-19 21:00N 37°49' W 122°25'0 0.0
2018-Jun-19 20:30N 37°49' W 122°25'3 5.6
2018-Jun-19 20:00N 37°49' W 122°28'3 5.5
2018-Jun-19 19:30N 37°49' W 122°25'0 0.0
2018-Jun-19 19:00N 37°49' W 122°25'0 0.0
2018-Jun-19 02:17N 37°49' W 122°25'0 0.1
2018-Jun-19 02:00N 37°49' W 122°25'4 7.4
2018-Jun-19 01:30N 37°49' W 122°29'4 7.3
2018-Jun-19 01:00N 37°49' W 122°25'1 1.9
2018-Jun-19 00:30N 37°49' W 122°25'1 2.8
2018-Jun-19 00:00N 37°49' W 122°27'2 3.3
2018-Jun-18 23:30N 37°49' W 122°25'0 0.0
2018-Jun-18 23:00N 37°49' W 122°25'3 6.2
2018-Jun-18 22:30N 37°49' W 122°28'3 6.2
2018-Jun-18 22:00N 37°49' W 122°25'0 0.0
2018-Jun-18 21:30N 37°49' W 122°25'0 0.0
2018-Jun-18 21:00N 37°49' W 122°25'3 6.7
2018-Jun-18 20:30N 37°49' W 122°29'3 6.6
2018-Jun-18 20:00N 37°49' W 122°25'1 2.2
2018-Jun-18 19:30N 37°48' W 122°23'2 4.3
2018-Jun-18 19:00N 37°50' W 122°25'1 2.1
2018-Jun-18 18:30N 37°49' W 122°26'1 2.3
2018-Jun-18 18:00N 37°49' W 122°25'0 0.0
2018-Jun-18 17:30N 37°49' W 122°25'0 0.0
2018-Jun-18 05:07N 37°49' W 122°25'0 0.8
2018-Jun-18 05:00N 37°49' W 122°25'4 8.6
2018-Jun-18 04:30N 37°52' W 122°27'1 2.9
2018-Jun-18 04:00N 37°51' W 122°29'3 5.8
2018-Jun-18 03:30N 37°49' W 122°26'1 2.6
2018-Jun-18 03:00N 37°49' W 122°25'3 6.0
2018-Jun-18 02:30N 37°51' W 122°27'1 2.7
2018-Jun-18 02:00N 37°52' W 122°27'4 8.6
2018-Jun-18 01:30N 37°49' W 122°25'0 0.0
2018-Jun-18 01:00N 37°49' W 122°25'0 0.0
2018-Jun-18 00:30N 37°49' W 122°25'1 2.8
2018-Jun-18 00:00N 37°50' W 122°26'3 5.9
2018-Jun-17 23:30N 37°52' W 122°27'4 8.6
2018-Jun-17 23:00N 37°49' W 122°25'0 0.0
2018-Jun-17 22:30N 37°49' W 122°25'0 0.0
2018-Jun-17 22:00N 37°49' W 122°25'0 0.0
2018-Jun-17 21:30N 37°49' W 122°25'0 0.0
2018-Jun-17 02:17N 37°49' W 122°25'0 0.1
2018-Jun-17 02:01N 37°49' W 122°25'2 4.2
2018-Jun-17 01:31N 37°49' W 122°27'2 4.2
2018-Jun-17 01:00N 37°49' W 122°25'1 1.6
2018-Jun-17 00:31N 37°49' W 122°25'2 3.6
2018-Jun-17 00:00N 37°49' W 122°27'2 4.0
2018-Jun-16 23:31N 37°49' W 122°25'0 0.0
2018-Jun-16 23:01N 37°49' W 122°25'3 5.8
2018-Jun-16 22:31N 37°49' W 122°28'3 5.9
2018-Jun-16 22:01N 37°49' W 122°25'0 0.0
2018-Jun-16 21:31N 37°49' W 122°25'0 0.0
2018-Jun-16 21:00N 37°49' W 122°25'3 6.0
2018-Jun-16 20:30N 37°49' W 122°28'3 6.0
2018-Jun-16 20:00N 37°49' W 122°25'1 1.2
2018-Jun-16 19:30N 37°48' W 122°24'2 3.6
2018-Jun-16 19:00N 37°50' W 122°25'2 3.0
2018-Jun-16 18:30N 37°49' W 122°27'2 3.2
2018-Jun-16 18:00N 37°49' W 122°25'0 0.0
2018-Jun-16 02:00N 37°49' W 122°25'2 4.8
2018-Jun-16 01:30N 37°49' W 122°27'2 4.7
2018-Jun-16 01:00N 37°49' W 122°25'1 2.2
2018-Jun-16 00:30N 37°50' W 122°25'2 3.6
2018-Jun-16 00:00N 37°49' W 122°27'2 3.5
2018-Jun-15 23:29N 37°49' W 122°25'0 0.0
2018-Jun-15 23:00N 37°49' W 122°25'3 5.6
2018-Jun-15 22:30N 37°49' W 122°28'3 5.5
2018-Jun-15 22:00N 37°49' W 122°25'0 0.0
2018-Jun-15 21:30N 37°49' W 122°25'0 0.0
2018-Jun-15 21:00N 37°49' W 122°25'3 5.2
2018-Jun-15 20:30N 37°50' W 122°28'3 5.4
2018-Jun-15 20:00N 37°49' W 122°25'1 1.6
2018-Jun-15 19:30N 37°49' W 122°24'2 4.1
2018-Jun-15 19:00N 37°50' W 122°25'1 3.0
2018-Jun-15 18:30N 37°49' W 122°26'1 0.1
2018-Jun-15 02:53N 37°49' W 122°25'2 6.0
2018-Jun-15 02:30N 37°49' W 122°27'2 4.6
2018-Jun-15 02:00N 37°49' W 122°25'0 0.0
2018-Jun-15 01:30N 37°49' W 122°25'2 4.4
2018-Jun-15 01:00N 37°50' W 122°27'2 4.3
2018-Jun-15 00:30N 37°49' W 122°25'0 0.8
2018-Jun-15 00:00N 37°49' W 122°24'3 5.4
2018-Jun-14 23:30N 37°49' W 122°28'3 5.2
2018-Jun-14 23:00N 37°49' W 122°25'0 0.0
2018-Jun-14 22:30N 37°49' W 122°25'1 1.2
2018-Jun-14 22:00N 37°48' W 122°24'2 3.2
2018-Jun-14 21:30N 37°49' W 122°25'1 2.7
2018-Jun-14 21:00N 37°49' W 122°27'2 3.8
2018-Jun-14 20:30N 37°49' W 122°25'0 0.0
2018-Jun-14 20:00N 37°49' W 122°25'3 5.2
2018-Jun-14 19:31N 37°49' W 122°28'3 5.2
2018-Jun-14 19:00N 37°49' W 122°25'1 1.5
2018-Jun-14 18:30N 37°49' W 122°25'2 3.0
2018-Jun-14 18:00N 37°49' W 122°27'2 3.3
2018-Jun-14 17:30N 37°49' W 122°25'  
Track history (hours):
 
Tides and Currents Weather Stations Pressure Air Temp Water Temp Dewpoint Dewpoint Depression Visibility Wind Speed Wind Dir Waves Ship Positions

Oski

Owner: BLUE & GOLD FLEET, SAN FRANCISCO, CA. More information available from US FCC via Universal Licensing System and Coast Guard Vessel Documentation Center.

Last reported at 2018-Jun-24 02:46 UTC. Time now 2018-Jun-24 20:15 UTC.
Position N 37°49' W 122°25'.

Length 24 m; draft 2 m.

Type: Passenger vessel. MMSI: 366985320.

Date/timePositionNaut miles runAvg speedWind from/ knotsBaromVisibWave heightAir tempDewpointWater temp
2018-Jun-24 02:46N 37°49' W 122°25'0 0.1
2018-Jun-24 02:30N 37°49' W 122°25'3 5.6
2018-Jun-24 02:00N 37°49' W 122°28'3 5.3
2018-Jun-24 01:30N 37°49' W 122°25'0 0.0
2018-Jun-24 00:55N 37°49' W 122°25'0 0.0
2018-Jun-24 00:27N 37°49' W 122°25'1 2.2
2018-Jun-24 00:00N 37°48' W 122°23'2 4.0
2018-Jun-23 23:30N 37°50' W 122°25'1 2.4
2018-Jun-23 23:00N 37°49' W 122°26'1 2.6
2018-Jun-23 22:28N 37°49' W 122°25'2 4.7
2018-Jun-23 22:00N 37°50' W 122°27'2 3.4
2018-Jun-23 21:23N 37°49' W 122°25'0 0.0
2018-Jun-23 20:55N 37°49' W 122°25'0 0.0
2018-Jun-23 20:28N 37°49' W 122°25'2 4.7
2018-Jun-23 20:01N 37°50' W 122°27'2 3.6
2018-Jun-23 19:24N 37°49' W 122°25'0 0.0
2018-Jun-23 19:00N 37°49' W 122°25'0 0.0
2018-Jun-23 04:24N 37°49' W 122°25'3 6.8
2018-Jun-23 04:00N 37°48' W 122°21'4 5.8
2018-Jun-23 03:23N 37°48' W 122°17'2 5.0
2018-Jun-23 03:00N 37°48' W 122°19'1 2.5
2018-Jun-23 02:30N 37°49' W 122°20'3 5.5
2018-Jun-23 02:00N 37°48' W 122°17'0 0.5
2018-Jun-23 01:28N 37°48' W 122°17'1 3.1
2018-Jun-23 01:00N 37°48' W 122°19'5 9.3
2018-Jun-23 00:29N 37°49' W 122°25'0 0.1
2018-Jun-22 23:59N 37°49' W 122°25'0 0.0
2018-Jun-21 15:43N 37°49' W 122°25'0 0.0
2018-Jun-21 15:28N 37°49' W 122°25'0 0.0
2018-Jun-21 02:38N 37°49' W 122°25'0 0.2
2018-Jun-21 02:30N 37°49' W 122°25'2 4.7
2018-Jun-21 02:00N 37°50' W 122°27'2 4.7
2018-Jun-21 01:30N 37°49' W 122°25'0 0.0
2018-Jun-21 01:01N 37°49' W 122°25'0 0.0
2018-Jun-21 00:30N 37°49' W 122°25'1 1.2
2018-Jun-21 00:00N 37°49' W 122°24'2 3.2
2018-Jun-20 23:31N 37°50' W 122°25'1 2.3
2018-Jun-20 23:01N 37°49' W 122°26'1 2.7
2018-Jun-20 22:29N 37°49' W 122°25'3 5.5
2018-Jun-20 22:00N 37°49' W 122°28'3 5.1
2018-Jun-20 21:29N 37°49' W 122°25'0 0.0
2018-Jun-20 20:54N 37°49' W 122°25'0 0.0
2018-Jun-20 20:31N 37°49' W 122°25'2 4.1
2018-Jun-20 20:00N 37°50' W 122°27'2 3.8
2018-Jun-20 19:28N 37°49' W 122°25'0 0.0
2018-Jun-20 18:58N 37°49' W 122°25'0 0.0
2018-Jun-20 02:50N 37°49' W 122°25'0 0.1
2018-Jun-20 02:30N 37°49' W 122°25'2 4.3
2018-Jun-20 02:01N 37°49' W 122°27'2 4.2
2018-Jun-20 01:31N 37°49' W 122°25'0 0.0
2018-Jun-20 01:00N 37°49' W 122°25'0 0.0
2018-Jun-20 00:30N 37°49' W 122°25'1 1.5
2018-Jun-20 00:00N 37°48' W 122°24'2 3.4
2018-Jun-19 23:30N 37°50' W 122°25'1 2.8
2018-Jun-19 23:00N 37°49' W 122°27'2 3.4
2018-Jun-19 22:30N 37°49' W 122°25'3 5.8
2018-Jun-19 22:00N 37°49' W 122°28'3 5.7
2018-Jun-19 21:30N 37°49' W 122°25'0 0.0
2018-Jun-19 21:00N 37°49' W 122°25'0 0.0
2018-Jun-19 20:30N 37°49' W 122°25'3 5.6
2018-Jun-19 20:00N 37°49' W 122°28'3 5.5
2018-Jun-19 19:30N 37°49' W 122°25'0 0.0
2018-Jun-19 19:00N 37°49' W 122°25'0 0.0
2018-Jun-19 02:17N 37°49' W 122°25'0 0.1
2018-Jun-19 02:00N 37°49' W 122°25'4 7.4
2018-Jun-19 01:30N 37°49' W 122°29'4 7.3
2018-Jun-19 01:00N 37°49' W 122°25'1 1.9
2018-Jun-19 00:30N 37°49' W 122°25'1 2.8
2018-Jun-19 00:00N 37°49' W 122°27'2 3.3
2018-Jun-18 23:30N 37°49' W 122°25'0 0.0
2018-Jun-18 23:00N 37°49' W 122°25'3 6.2
2018-Jun-18 22:30N 37°49' W 122°28'3 6.2
2018-Jun-18 22:00N 37°49' W 122°25'0 0.0
2018-Jun-18 21:30N 37°49' W 122°25'0 0.0
2018-Jun-18 21:00N 37°49' W 122°25'3 6.7
2018-Jun-18 20:30N 37°49' W 122°29'3 6.6
2018-Jun-18 20:00N 37°49' W 122°25'1 2.2
2018-Jun-18 19:30N 37°48' W 122°23'2 4.3
2018-Jun-18 19:00N 37°50' W 122°25'1 2.1
2018-Jun-18 18:30N 37°49' W 122°26'1 2.3
2018-Jun-18 18:00N 37°49' W 122°25'0 0.0
2018-Jun-18 17:30N 37°49' W 122°25'0 0.0
2018-Jun-18 05:07N 37°49' W 122°25'0 0.8
2018-Jun-18 05:00N 37°49' W 122°25'4 8.6
2018-Jun-18 04:30N 37°52' W 122°27'1 2.9
2018-Jun-18 04:00N 37°51' W 122°29'3 5.8
2018-Jun-18 03:30N 37°49' W 122°26'1 2.6
2018-Jun-18 03:00N 37°49' W 122°25'3 6.0
2018-Jun-18 02:30N 37°51' W 122°27'1 2.7
2018-Jun-18 02:00N 37°52' W 122°27'4 8.6
2018-Jun-18 01:30N 37°49' W 122°25'0 0.0
2018-Jun-18 01:00N 37°49' W 122°25'0 0.0
2018-Jun-18 00:30N 37°49' W 122°25'1 2.8
2018-Jun-18 00:00N 37°50' W 122°26'3 5.9
2018-Jun-17 23:30N 37°52' W 122°27'4 8.6
2018-Jun-17 23:00N 37°49' W 122°25'0 0.0
2018-Jun-17 22:30N 37°49' W 122°25'0 0.0
2018-Jun-17 22:00N 37°49' W 122°25'0 0.0
2018-Jun-17 21:30N 37°49' W 122°25'0 0.0
2018-Jun-17 02:17N 37°49' W 122°25'0 0.1
2018-Jun-17 02:01N 37°49' W 122°25'2 4.2
2018-Jun-17 01:31N 37°49' W 122°27'2 4.2
2018-Jun-17 01:00N 37°49' W 122°25'1 1.6
2018-Jun-17 00:31N 37°49' W 122°25'2 3.6
2018-Jun-17 00:00N 37°49' W 122°27'2 4.0
2018-Jun-16 23:31N 37°49' W 122°25'0 0.0
2018-Jun-16 23:01N 37°49' W 122°25'3 5.8
2018-Jun-16 22:31N 37°49' W 122°28'3 5.9
2018-Jun-16 22:01N 37°49' W 122°25'0 0.0
2018-Jun-16 21:31N 37°49' W 122°25'0 0.0
2018-Jun-16 21:00N 37°49' W 122°25'3 6.0
2018-Jun-16 20:30N 37°49' W 122°28'3 6.0
2018-Jun-16 20:00N 37°49' W 122°25'1 1.2
2018-Jun-16 19:30N 37°48' W 122°24'2 3.6
2018-Jun-16 19:00N 37°50' W 122°25'2 3.0
2018-Jun-16 18:30N 37°49' W 122°27'2 3.2
2018-Jun-16 18:00N 37°49' W 122°25'0 0.0
2018-Jun-16 02:00N 37°49' W 122°25'2 4.8
2018-Jun-16 01:30N 37°49' W 122°27'2 4.7
2018-Jun-16 01:00N 37°49' W 122°25'1 2.2
2018-Jun-16 00:30N 37°50' W 122°25'2 3.6
2018-Jun-16 00:00N 37°49' W 122°27'2 3.5
2018-Jun-15 23:29N 37°49' W 122°25'0 0.0
2018-Jun-15 23:00N 37°49' W 122°25'3 5.6
2018-Jun-15 22:30N 37°49' W 122°28'3 5.5
2018-Jun-15 22:00N 37°49' W 122°25'0 0.0
2018-Jun-15 21:30N 37°49' W 122°25'0 0.0
2018-Jun-15 21:00N 37°49' W 122°25'3 5.2
2018-Jun-15 20:30N 37°50' W 122°28'3 5.4
2018-Jun-15 20:00N 37°49' W 122°25'1 1.6
2018-Jun-15 19:30N 37°49' W 122°24'2 4.1
2018-Jun-15 19:00N 37°50' W 122°25'1 3.0
2018-Jun-15 18:30N 37°49' W 122°26'1 0.1
2018-Jun-15 02:53N 37°49' W 122°25'2 6.0
2018-Jun-15 02:30N 37°49' W 122°27'2 4.6
2018-Jun-15 02:00N 37°49' W 122°25'0 0.0
2018-Jun-15 01:30N 37°49' W 122°25'2 4.4
2018-Jun-15 01:00N 37°50' W 122°27'2 4.3
2018-Jun-15 00:30N 37°49' W 122°25'0 0.8
2018-Jun-15 00:00N 37°49' W 122°24'3 5.4
2018-Jun-14 23:30N 37°49' W 122°28'3 5.2
2018-Jun-14 23:00N 37°49' W 122°25'0 0.0
2018-Jun-14 22:30N 37°49' W 122°25'1 1.2
2018-Jun-14 22:00N 37°48' W 122°24'2 3.2
2018-Jun-14 21:30N 37°49' W 122°25'1 2.7
2018-Jun-14 21:00N 37°49' W 122°27'2 3.8
2018-Jun-14 20:30N 37°49' W 122°25'0 0.0
2018-Jun-14 20:00N 37°49' W 122°25'3 5.2
2018-Jun-14 19:31N 37°49' W 122°28'3 5.2
2018-Jun-14 19:00N 37°49' W 122°25'1 1.5
2018-Jun-14 18:30N 37°49' W 122°25'2 3.0
2018-Jun-14 18:00N 37°49' W 122°27'2 3.3
2018-Jun-14 17:30N 37°49' W 122°25'  

Dump ship's entire track history